Vn Sapeur — FITO — position and weather

sailwx.info

Track history (hours):
 
Tides and Currents Weather Stations Pressure Air Temp Water Temp Dewpoint Dewpoint Depression Visibility Wind Speed Wind Dir Waves Ship Positions

Vn Sapeur

Last reported at 2018-Jun-24 11:00 UTC. Time now 2018-Jun-24 11:12 UTC.
Position N 48°22' W 004°31'.

Length 75 m; draft 5.7 m.

Type: SAR. MMSI: 228064900.

Date/timePositionNaut miles runAvg speedWind from/ knotsBaromVisibWave heightAir tempDewpointWater temp
2018-Jun-24 11:00N 48°22' W 004°31'0 0.0
2018-Jun-24 10:31N 48°22' W 004°31'0 0.0
2018-Jun-24 10:01N 48°22' W 004°31'0 0.0
2018-Jun-24 09:30N 48°22' W 004°31'0 0.0
2018-Jun-24 09:00N 48°22' W 004°31'0 0.0
2018-Jun-24 08:30N 48°22' W 004°31'0 0.0
2018-Jun-24 08:00N 48°22' W 004°31'0 0.0
2018-Jun-24 07:31N 48°22' W 004°31'0 0.0
2018-Jun-24 07:00N 48°22' W 004°31'0 0.0
2018-Jun-24 06:27N 48°22' W 004°31'0 0.0
2018-Jun-24 06:00N 48°22' W 004°31'1 1.9
2018-Jun-24 05:30N 48°22' W 004°30'5 9.7
2018-Jun-24 05:01N 48°19' W 004°36'4 8.1
2018-Jun-24 04:30N 48°18' W 004°42'4 7.9
2018-Jun-24 04:00N 48°14' W 004°45'4 8.8
2018-Jun-24 03:30N 48°10' W 004°45'4 8.3
2018-Jun-24 03:00N 48°06' W 004°45'3 6.9
2018-Jun-24 02:30N 48°02' W 004°46'3 6.3
2018-Jun-24 02:00N 47°60' W 004°44'3 6.3
2018-Jun-24 01:30N 47°58' W 004°40'3 6.3
2018-Jun-24 01:00N 47°55' W 004°37'3 6.8
2018-Jun-24 00:30N 47°53' W 004°34'3 7.0
2018-Jun-24 00:00N 47°50' W 004°30'4 7.0
2018-Jun-23 23:26N 47°47' W 004°26'11 7.6
2018-Jun-23 21:58N 47°40' W 004°13'23 7.8
2018-Jun-23 18:58N 47°28' W 003°44'3 7.6
2018-Jun-23 18:30N 47°26' W 003°39'4 7.5
2018-Jun-23 18:00N 47°24' W 003°35'4 7.2
2018-Jun-23 17:30N 47°22' W 003°30'4 7.5
2018-Jun-23 17:00N 47°21' W 003°25'4 7.9
2018-Jun-23 16:30N 47°19' W 003°20'4 8.5
2018-Jun-23 16:00N 47°17' W 003°14'5 8.9
2018-Jun-23 15:29N 47°16' W 003°08'4 8.6
2018-Jun-23 15:00N 47°14' W 003°02'4 7.9
2018-Jun-23 14:30N 47°13' W 002°56'4 8.2
2018-Jun-23 13:59N 47°13' W 002°50'9 7.3
2018-Jun-23 12:45N 47°14' W 002°37'2 7.5
2018-Jun-23 12:30N 47°14' W 002°34'4 7.8
2018-Jun-23 11:55N 47°15' W 002°28'3 5.9
2018-Jun-23 11:29N 47°15' W 002°24'0 0.0
2018-Jun-23 11:00N 47°15' W 002°24'0 0.0
2018-Jun-23 09:04N 47°15' W 002°24'0 1.5
2018-Jun-23 08:58N 47°15' W 002°24'3 5.9
2018-Jun-23 08:30N 47°14' W 002°28'510.4
2018-Jun-23 07:59N 47°14' W 002°36'611.3
2018-Jun-23 07:30N 47°15' W 002°44'511.0
2018-Jun-23 07:00N 47°17' W 002°52'510.8
2018-Jun-23 06:30N 47°19' W 002°59'510.4
2018-Jun-23 06:00N 47°21' W 003°06'1 1.8
2018-Jun-23 05:29N 47°21' W 003°08'0 0.0
2018-Jun-23 04:59N 47°21' W 003°08'0 0.0
2018-Jun-23 04:29N 47°21' W 003°08'0 0.0
2018-Jun-23 03:59N 47°21' W 003°08'0 0.0
2018-Jun-23 03:29N 47°21' W 003°08'0 0.0
2018-Jun-23 02:59N 47°21' W 003°08'0 0.0
2018-Jun-23 02:29N 47°21' W 003°08'0 0.1
2018-Jun-23 01:59N 47°21' W 003°08'0 0.0
2018-Jun-23 01:29N 47°21' W 003°07'0 0.0
2018-Jun-23 00:59N 47°21' W 003°08'0 0.0
2018-Jun-23 00:29N 47°21' W 003°08'0 0.0
2018-Jun-22 23:59N 47°21' W 003°08'0 0.0
2018-Jun-22 23:29N 47°21' W 003°07'0 0.1
2018-Jun-22 22:59N 47°21' W 003°07'0 0.0
2018-Jun-22 22:29N 47°21' W 003°07'0 0.0
2018-Jun-22 21:59N 47°21' W 003°08'0 0.0
2018-Jun-22 21:29N 47°21' W 003°08'0 0.0
2018-Jun-22 20:59N 47°21' W 003°08'0 0.0
2018-Jun-22 20:29N 47°21' W 003°07'0 0.0
2018-Jun-22 19:59N 47°21' W 003°07'0 0.0
2018-Jun-22 19:29N 47°21' W 003°07'0 0.0
2018-Jun-22 18:59N 47°21' W 003°07'0 0.0
2018-Jun-22 18:29N 47°21' W 003°07'0 0.0
2018-Jun-22 17:59N 47°21' W 003°08'0 0.0
2018-Jun-22 17:29N 47°21' W 003°08'0 0.0
2018-Jun-22 16:59N 47°21' W 003°08'0 0.0
2018-Jun-22 16:29N 47°21' W 003°08'0 0.0
2018-Jun-22 15:59N 47°21' W 003°08'0 0.0
2018-Jun-22 15:26N 47°21' W 003°08'0 0.0
2018-Jun-22 14:59N 47°21' W 003°08'0 0.0
2018-Jun-22 14:29N 47°21' W 003°08'0 0.0
2018-Jun-22 13:59N 47°21' W 003°08'0 0.0
2018-Jun-22 13:29N 47°21' W 003°08'0 0.0
2018-Jun-22 12:59N 47°21' W 003°08'0 0.0
2018-Jun-22 12:29N 47°21' W 003°08'0 0.0
2018-Jun-22 11:59N 47°21' W 003°08'0 0.0
2018-Jun-22 11:26N 47°21' W 003°08'0 0.0
2018-Jun-22 10:59N 47°21' W 003°08'0 0.0
2018-Jun-22 10:29N 47°21' W 003°08'0 0.0
2018-Jun-22 09:59N 47°21' W 003°08'0 0.0
2018-Jun-22 09:29N 47°21' W 003°08'0 0.0
2018-Jun-22 08:59N 47°21' W 003°08'0 0.0
2018-Jun-22 08:29N 47°21' W 003°08'0 0.1
2018-Jun-22 07:59N 47°21' W 003°08'0 0.0
2018-Jun-22 07:29N 47°21' W 003°08'0 0.0
2018-Jun-22 06:59N 47°21' W 003°08'0 0.0
2018-Jun-22 06:29N 47°21' W 003°08'0 0.0
2018-Jun-22 05:59N 47°21' W 003°08'0 0.0
2018-Jun-22 05:29N 47°21' W 003°08'0 0.0
2018-Jun-22 04:59N 47°21' W 003°08'0 0.0
2018-Jun-22 04:29N 47°21' W 003°08'0 0.0
2018-Jun-22 03:59N 47°21' W 003°08'0 0.0
2018-Jun-22 03:29N 47°21' W 003°08'0 0.0
2018-Jun-22 02:59N 47°21' W 003°08'0 0.0
2018-Jun-22 02:29N 47°21' W 003°08'0 0.0
2018-Jun-22 01:59N 47°21' W 003°07'0 0.0
2018-Jun-22 01:29N 47°21' W 003°07'0 0.0
2018-Jun-22 00:59N 47°21' W 003°07'0 0.0
2018-Jun-22 00:29N 47°21' W 003°08'0 0.0
2018-Jun-21 23:59N 47°21' W 003°08'0 0.1
2018-Jun-21 23:29N 47°21' W 003°07'0 0.1
2018-Jun-21 22:59N 47°21' W 003°08'0 0.1
2018-Jun-21 22:29N 47°21' W 003°07'0 0.1
2018-Jun-21 21:59N 47°21' W 003°07'0 0.0
2018-Jun-21 21:29N 47°21' W 003°07'0 0.0
2018-Jun-21 20:59N 47°21' W 003°07'0 0.0
2018-Jun-21 20:29N 47°21' W 003°07'0 0.0
2018-Jun-21 19:59N 47°21' W 003°07'0 0.1
2018-Jun-21 19:29N 47°21' W 003°07'0 0.1
2018-Jun-21 18:59N 47°21' W 003°07'0 0.0
2018-Jun-21 18:29N 47°21' W 003°07'0 0.0
2018-Jun-21 17:59N 47°21' W 003°07'0 0.0
2018-Jun-21 17:29N 47°21' W 003°07'0 0.0
2018-Jun-21 16:59N 47°21' W 003°07'0 0.0
2018-Jun-21 16:29N 47°21' W 003°07'2 3.3
2018-Jun-21 16:01N 47°23' W 003°08'510.2
2018-Jun-21 15:31N 47°28' W 003°08'0 0.8
2018-Jun-21 15:00N 47°27' W 003°08'3 6.9
2018-Jun-21 14:30N 47°24' W 003°06'511.1
2018-Jun-21 14:01N 47°19' W 003°03'510.9
2018-Jun-21 13:30N 47°14' W 002°59'3 5.6
2018-Jun-21 13:01N 47°12' W 003°00'4 7.0
2018-Jun-21 12:29N 47°08' W 003°02'2 3.2
2018-Jun-21 12:00N 47°07' W 003°03'4 7.0
2018-Jun-21 11:23N 47°11' W 003°01'0 0.2
2018-Jun-21 10:58N 47°11' W 003°01'2 3.9
2018-Jun-21 10:30N 47°12' W 003°03'0 0.4
2018-Jun-21 10:00N 47°12' W 003°03'1 0.9
2018-Jun-21 09:24N 47°12' W 003°03'1 1.8
2018-Jun-21 09:00N 47°12' W 003°03'0 1.0
2018-Jun-21 08:31N 47°12' W 003°03'4 7.5
2018-Jun-21 08:00N 47°10' W 002°58'612.2
2018-Jun-21 07:30N 47°06' W 002°51'3 4.8
2018-Jun-21 06:57N 47°08' W 002°49'4 7.9
2018-Jun-21 06:28N 47°12' W 002°52'2 4.2
2018-Jun-21 05:59N 47°12' W 002°54'3 6.3
2018-Jun-21 05:30N 47°13' W 002°59'4 8.5
2018-Jun-21 05:00N 47°13' W 003°05'4 8.6
2018-Jun-21 04:31N 47°14' W 003°11'4 8.1
2018-Jun-21 04:00N 47°16' W 003°17'4 8.3
2018-Jun-21 03:30N 47°18' W 003°22'4 8.1
2018-Jun-21 03:00N 47°20' W 003°27'4 7.8
2018-Jun-21 02:31N 47°22' W 003°31'4 7.9
2018-Jun-21 02:00N 47°25' W 003°36'4 7.7
2018-Jun-21 01:30N 47°27' W 003°41'4 7.6
2018-Jun-21 01:00N 47°29' W 003°46'4 7.3
2018-Jun-21 00:31N 47°31' W 003°50'4 8.0
2018-Jun-21 00:00N 47°33' W 003°55'4 8.2
2018-Jun-20 23:30N 47°35' W 004°01'4 8.2
2018-Jun-20 22:59N 47°37' W 004°06'4 8.4
2018-Jun-20 22:29N 47°40' W 004°11'28 8.4
2018-Jun-20 19:11N 47°58' W 004°41'2 9.0
2018-Jun-20 19:00N 47°60' W 004°43'4 8.8
2018-Jun-20 18:31N 48°03' W 004°47'510.2
2018-Jun-20 18:00N 48°08' W 004°46'611.5
2018-Jun-20 17:30N 48°14' W 004°45'510.5
2018-Jun-20 17:00N 48°18' W 004°41'510.8
2018-Jun-20 16:31N 48°21' W 004°33'2 4.5
2018-Jun-20 15:58N 48°22' W 004°31'0 0.0
2018-Jun-20 15:29N 48°22' W 004°31'0 0.0
2018-Jun-20 14:58N 48°22' W 004°31'0 0.0
2018-Jun-20 14:28N 48°22' W 004°31'0 0.0
2018-Jun-20 13:58N 48°22' W 004°31'0 0.1
2018-Jun-20 13:30N 48°22' W 004°31'1 2.1
2018-Jun-20 13:01N 48°22' W 004°29'4 8.6
2018-Jun-20 12:30N 48°20' W 004°35'4 7.4
2018-Jun-20 11:59N 48°21' W 004°41'0 0.0
2018-Jun-20 11:29N 48°21' W 004°41'0 0.0
2018-Jun-20 10:59N 48°21' W 004°41'0 0.0
2018-Jun-20 10:29N 48°21' W 004°41'0 0.2
2018-Jun-20 10:00N 48°21' W 004°41'611.5
2018-Jun-20 09:30N 48°15' W 004°45'611.5
2018-Jun-20 09:00N 48°10' W 004°41'611.5
2018-Jun-20 08:30N 48°08' W 004°34'4 7.6
2018-Jun-20 08:00N 48°07' W 004°28'3 6.0
2018-Jun-20 07:30N 48°07' W 004°23'3 5.1
2018-Jun-20 07:00N 48°06' W 004°20'0 0.1
2018-Jun-20 06:29N 48°06' W 004°20'0 0.0
2018-Jun-20 05:59N 48°06' W 004°20'0 0.0
2018-Jun-20 05:29N 48°06' W 004°20'0 0.0
2018-Jun-20 04:59N 48°06' W 004°20'0 0.0
2018-Jun-20 04:29N 48°06' W 004°20'0 0.0
2018-Jun-20 03:53N 48°06' W 004°20'0 0.0
2018-Jun-20 03:29N 48°06' W 004°20'0 0.0
2018-Jun-20 02:53N 48°06' W 004°20'0 0.0
2018-Jun-20 02:23N 48°06' W 004°20'0 0.0
2018-Jun-20 01:59N 48°06' W 004°20'0 0.0
2018-Jun-20 01:23N 48°06' W 004°20'0 0.0
2018-Jun-20 00:59N 48°06' W 004°20'0 0.0
2018-Jun-20 00:29N 48°06' W 004°20'0 0.0
2018-Jun-19 23:59N 48°06' W 004°20'0 0.0
2018-Jun-19 23:29N 48°06' W 004°20'0 0.0
2018-Jun-19 22:59N 48°06' W 004°20'0 0.0
2018-Jun-19 22:29N 48°06' W 004°20'0 0.0
2018-Jun-19 21:59N 48°06' W 004°20'0 0.0
2018-Jun-19 21:29N 48°06' W 004°20'0 0.0
2018-Jun-19 20:59N 48°06' W 004°20'0 0.0
2018-Jun-19 20:29N 48°06' W 004°20'0 0.0
2018-Jun-19 19:59N 48°06' W 004°20'0 0.0
2018-Jun-19 19:29N 48°06' W 004°20'0 0.0
2018-Jun-19 18:59N 48°06' W 004°20'0 0.0
2018-Jun-19 18:29N 48°06' W 004°20'0 0.0
2018-Jun-19 17:59N 48°06' W 004°20'0 0.0
2018-Jun-19 17:29N 48°06' W 004°20'0 0.0
2018-Jun-19 16:59N 48°06' W 004°20'0 0.0
2018-Jun-19 16:26N 48°06' W 004°20'0 0.0
2018-Jun-19 15:56N 48°06' W 004°20'0 0.0
2018-Jun-19 15:29N 48°06' W 004°20'0 0.0
2018-Jun-19 14:59N 48°06' W 004°20'0 0.0
2018-Jun-19 14:29N 48°06' W 004°20'0 0.0
2018-Jun-19 13:59N 48°06' W 004°20'0 0.0
2018-Jun-19 13:29N 48°06' W 004°20'0 0.0
2018-Jun-19 12:59N 48°06' W 004°20'0 0.0
2018-Jun-19 12:29N 48°06' W 004°20'0 0.0
2018-Jun-19 11:59N 48°06' W 004°20'0 0.0
2018-Jun-19 11:29N 48°06' W 004°20'0 0.0
2018-Jun-19 10:59N 48°06' W 004°20'0 0.0
2018-Jun-19 10:20N 48°06' W 004°20'0 0.0
2018-Jun-19 09:59N 48°06' W 004°20'0 0.0
2018-Jun-19 09:23N 48°06' W 004°20'0 0.0
2018-Jun-19 08:56N 48°06' W 004°20'0 0.0
2018-Jun-19 08:29N 48°06' W 004°20'0 0.0
2018-Jun-19 07:59N 48°06' W 004°20'0 0.0
2018-Jun-19 07:29N 48°06' W 004°20'0 0.0
2018-Jun-19 06:56N 48°06' W 004°20'0 0.0
2018-Jun-19 06:29N 48°06' W 004°20'0 0.0
2018-Jun-19 05:59N 48°06' W 004°20'0 0.0
2018-Jun-19 05:29N 48°06' W 004°20'0 0.0
2018-Jun-19 04:59N 48°06' W 004°20'0 0.0
2018-Jun-19 04:29N 48°06' W 004°20'0 0.0
2018-Jun-19 03:59N 48°06' W 004°20'0 0.0
2018-Jun-19 03:29N 48°06' W 004°20'0 0.0
2018-Jun-19 02:59N 48°06' W 004°20'0 0.0
2018-Jun-19 02:29N 48°06' W 004°20'0 0.0
2018-Jun-19 01:59N 48°06' W 004°20'0 0.0
2018-Jun-19 01:29N 48°06' W 004°20'0 0.0
2018-Jun-19 00:59N 48°06' W 004°20'0 0.0
2018-Jun-19 00:29N 48°06' W 004°20'0 0.0
2018-Jun-18 23:59N 48°06' W 004°20'0 0.0
2018-Jun-18 23:26N 48°06' W 004°20'0 0.0
2018-Jun-18 22:59N 48°06' W 004°20'0 0.0
2018-Jun-18 22:29N 48°06' W 004°20'0 0.0
2018-Jun-18 21:59N 48°06' W 004°20'0 0.0
2018-Jun-18 21:29N 48°06' W 004°20'0 0.0
2018-Jun-18 20:59N 48°06' W 004°20'0 0.0
2018-Jun-18 20:29N 48°06' W 004°20'0 0.0
2018-Jun-18 19:59N 48°06' W 004°20'0 0.0
2018-Jun-18 19:29N 48°06' W 004°20'0 0.0
2018-Jun-18 18:59N 48°06' W 004°20'0 0.0
2018-Jun-18 18:29N 48°06' W 004°20'0 0.0
2018-Jun-18 17:59N 48°06' W 004°20'0 0.0
2018-Jun-18 17:29N 48°06' W 004°20'0 0.0
2018-Jun-18 16:59N 48°06' W 004°20'0 0.0
2018-Jun-18 16:29N 48°06' W 004°20'0 0.0
2018-Jun-18 15:59N 48°06' W 004°20'0 0.0
2018-Jun-18 15:29N 48°06' W 004°20'0 0.0
2018-Jun-18 14:59N 48°06' W 004°20'0 0.0
2018-Jun-18 14:29N 48°06' W 004°20'0 0.0
2018-Jun-18 13:59N 48°06' W 004°20'0 0.0
2018-Jun-18 13:29N 48°06' W 004°20'0 0.0
2018-Jun-18 12:59N 48°06' W 004°20'0 0.0
2018-Jun-18 12:29N 48°06' W 004°20'0 0.0
2018-Jun-18 11:59N 48°06' W 004°20'0 0.0
2018-Jun-18 11:29N 48°06' W 004°20'0 0.0
2018-Jun-18 10:59N 48°06' W 004°20'0 0.0
2018-Jun-18 10:29N 48°06' W 004°20'0 0.0
2018-Jun-18 09:59N 48°06' W 004°20'2 3.8
2018-Jun-18 09:30N 48°07' W 004°22'612.9
2018-Jun-18 09:01N 48°09' W 004°31'612.5
2018-Jun-18 08:31N 48°12' W 004°40'510.5
2018-Jun-18 08:00N 48°17' W 004°38'612.4
2018-Jun-18 07:30N 48°21' W 004°31'1 2.2
2018-Jun-18 06:58N 48°22' W 004°31'0 0.0
2018-Jun-18 06:28N 48°22' W 004°31'0 0.0
2018-Jun-18 05:58N 48°22' W 004°31'0 0.0
2018-Jun-18 05:28N 48°22' W 004°31'0 0.0
2018-Jun-18 04:58N 48°22' W 004°31'0 0.0
2018-Jun-18 04:28N 48°22' W 004°31'0 0.0
2018-Jun-18 03:58N 48°22' W 004°31'0 0.0
2018-Jun-18 03:28N 48°22' W 004°31'0 0.0
2018-Jun-18 02:58N 48°22' W 004°31'0 0.0
2018-Jun-18 02:28N 48°22' W 004°31'0 0.0
2018-Jun-18 01:58N 48°22' W 004°31'0 0.0
2018-Jun-18 01:28N 48°22' W 004°31'0 0.0
2018-Jun-18 00:58N 48°22' W 004°31'0 0.0
2018-Jun-18 00:28N 48°22' W 004°31'0 0.0
2018-Jun-17 23:58N 48°22' W 004°31'0 0.0
2018-Jun-17 23:28N 48°22' W 004°31'0 0.0
2018-Jun-17 22:58N 48°22' W 004°31'0 0.0
2018-Jun-17 22:28N 48°22' W 004°31'0 0.0
2018-Jun-17 21:58N 48°22' W 004°31'0 0.0
2018-Jun-17 21:28N 48°22' W 004°31'0 0.0
2018-Jun-17 20:58N 48°22' W 004°31'0 0.0
2018-Jun-17 20:28N 48°22' W 004°31'0 0.0
2018-Jun-17 19:58N 48°22' W 004°31'0 0.0
2018-Jun-17 19:28N 48°22' W 004°31'0 0.0
2018-Jun-17 18:58N 48°22' W 004°31'0 0.0
2018-Jun-17 18:28N 48°22' W 004°31'0 0.0
2018-Jun-17 17:58N 48°22' W 004°31'0 0.0
2018-Jun-17 17:28N 48°22' W 004°31'0 0.0
2018-Jun-17 16:58N 48°22' W 004°31'0 0.0
2018-Jun-17 16:28N 48°22' W 004°31'0 0.0
2018-Jun-17 15:58N 48°22' W 004°31'0 0.0
2018-Jun-17 15:28N 48°22' W 004°31'0 0.0
2018-Jun-17 14:58N 48°22' W 004°31'0 0.0
2018-Jun-17 14:28N 48°22' W 004°31'0 0.0
2018-Jun-17 13:58N 48°22' W 004°31'0 0.0
2018-Jun-17 13:28N 48°22' W 004°31'0 0.0
2018-Jun-17 12:58N 48°22' W 004°31'0 0.0
2018-Jun-17 12:28N 48°22' W 004°31'0 0.0
2018-Jun-17 11:58N 48°22' W 004°31'0 0.0
2018-Jun-17 11:28N 48°22' W 004°31'0 0.0
2018-Jun-17 10:58N 48°22' W 004°31'0 0.0
2018-Jun-17 10:28N 48°22' W 004°31'0 0.0
2018-Jun-17 09:58N 48°22' W 004°31'0 0.0
2018-Jun-17 09:28N 48°22' W 004°31'0 0.0
2018-Jun-17 08:58N 48°22' W 004°31'0 0.0
2018-Jun-17 08:28N 48°22' W 004°31'0 0.0
2018-Jun-17 07:58N 48°22' W 004°31'0 0.0
2018-Jun-17 07:28N 48°22' W 004°31'0 0.0
2018-Jun-17 06:58N 48°22' W 004°31'0 0.0
2018-Jun-17 06:28N 48°22' W 004°31'0 0.0
2018-Jun-17 05:58N 48°22' W 004°31'0 0.0
2018-Jun-17 05:28N 48°22' W 004°31'0 0.0
2018-Jun-17 04:58N 48°22' W 004°31'0 0.0
2018-Jun-17 04:28N 48°22' W 004°31'0 0.0
2018-Jun-17 03:58N 48°22' W 004°31'0 0.0
2018-Jun-17 03:28N 48°22' W 004°31'0 0.0
2018-Jun-17 02:58N 48°22' W 004°31'0 0.0
2018-Jun-17 02:28N 48°22' W 004°31'0 0.0
2018-Jun-17 01:58N 48°22' W 004°31'0 0.0
2018-Jun-17 01:28N 48°22' W 004°31'0 0.0
2018-Jun-17 00:58N 48°22' W 004°31'0 0.0
2018-Jun-17 00:28N 48°22' W 004°31'0 0.0
2018-Jun-16 23:58N 48°22' W 004°31'0 0.0
2018-Jun-16 23:28N 48°22' W 004°31'0 0.0
2018-Jun-16 22:58N 48°22' W 004°31'0 0.0
2018-Jun-16 22:28N 48°22' W 004°31'0 0.1
2018-Jun-16 21:58N 48°22' W 004°31'0 0.1
2018-Jun-16 21:28N 48°22' W 004°31'0 0.0
2018-Jun-16 20:58N 48°22' W 004°31'0 0.0
2018-Jun-16 20:28N 48°22' W 004°31'0 0.0
2018-Jun-16 19:58N 48°22' W 004°31'0 0.0
2018-Jun-16 19:28N 48°22' W 004°31'0 0.0
2018-Jun-16 18:58N 48°22' W 004°31'0 0.0
2018-Jun-16 18:28N 48°22' W 004°31'0 0.0
2018-Jun-16 17:58N 48°22' W 004°31'0 0.0
2018-Jun-16 17:28N 48°22' W 004°31'0 0.0
2018-Jun-16 16:58N 48°22' W 004°31'0 0.0
2018-Jun-16 16:28N 48°22' W 004°31'0 0.0
2018-Jun-16 15:58N 48°22' W 004°31'0 0.0
2018-Jun-16 15:28N 48°22' W 004°31'0 0.0
2018-Jun-16 14:58N 48°22' W 004°31'0 0.0
2018-Jun-16 14:28N 48°22' W 004°31'0 0.0
2018-Jun-16 13:58N 48°22' W 004°31'0 0.0
2018-Jun-16 13:28N 48°22' W 004°31'0 0.0
2018-Jun-16 12:58N 48°22' W 004°31'0 0.0
2018-Jun-16 12:28N 48°22' W 004°31'0 0.0
2018-Jun-16 11:58N 48°22' W 004°31'0 0.0
2018-Jun-16 11:28N 48°22' W 004°31'0 0.0
2018-Jun-16 10:58N 48°22' W 004°31'0 0.0
2018-Jun-16 10:28N 48°22' W 004°31'0 0.0
2018-Jun-16 09:58N 48°22' W 004°31'0 0.0
2018-Jun-16 09:28N 48°22' W 004°31'0 0.0
2018-Jun-16 08:58N 48°22' W 004°31'0 0.0
2018-Jun-16 08:28N 48°22' W 004°31'0 0.0
2018-Jun-16 07:58N 48°22' W 004°31'0 0.0
2018-Jun-16 07:28N 48°22' W 004°31'0 0.0
2018-Jun-16 06:58N 48°22' W 004°31'0 0.0
2018-Jun-16 06:28N 48°22' W 004°31'0 0.0
2018-Jun-16 05:58N 48°22' W 004°31'1 1.8
2018-Jun-16 05:30N 48°22' W 004°30'5 9.9
2018-Jun-16 05:00N 48°19' W 004°36'3 6.5
2018-Jun-16 04:30N 48°18' W 004°40'4 7.8
2018-Jun-16 04:01N 48°16' W 004°45'4 7.8
2018-Jun-16 03:30N 48°12' W 004°46'4 7.4
2018-Jun-16 03:00N 48°09' W 004°45'4 7.9
2018-Jun-16 02:30N 48°05' W 004°45'4 7.7
2018-Jun-16 02:00N 48°01' W 004°45'2 3.9
2018-Jun-16 01:30N 47°59' W 004°44'2 3.5
2018-Jun-16 01:00N 47°57' W 004°44'14 3.7
2018-Jun-15 21:10N 47°45' W 004°33'3 6.6
2018-Jun-15 20:43N 47°44' W 004°29'3 6.3
2018-Jun-15 20:12N 47°43' W 004°24'33 5.9
2018-Jun-15 14:35N 47°30' W 003°39'1 6.1
2018-Jun-15 14:29N 47°29' W 003°38'3 6.2
2018-Jun-15 13:57N 47°28' W 003°34'3 6.3
2018-Jun-15 13:30N 47°27' W 003°30'3 6.2
2018-Jun-15 13:00N 47°27' W 003°25'4 8.9
2018-Jun-15 12:30N 47°26' W 003°19'4 7.2
2018-Jun-15 12:00N 47°25' W 003°14'3 5.7
2018-Jun-15 11:30N 47°27' W 003°10'2 4.9
2018-Jun-15 11:00N 47°27' W 003°13'2 4.1
2018-Jun-15 10:31N 47°27' W 003°10'4 7.7
2018-Jun-15 10:00N 47°23' W 003°09'510.7
2018-Jun-15 09:30N 47°19' W 003°03'4 8.8
2018-Jun-15 09:00N 47°15' W 003°06'2 4.1
2018-Jun-15 08:30N 47°15' W 003°09'1 2.5
2018-Jun-15 08:00N 47°15' W 003°11'610.8
2018-Jun-15 07:25N 47°18' W 003°02'410.3
2018-Jun-15 07:00N 47°21' W 003°07'0 0.4
2018-Jun-15 06:28N 47°21' W 003°07'0 0.0
2018-Jun-15 05:59N 47°21' W 003°07'0 0.0
2018-Jun-15 05:28N 47°21' W 003°07'0 0.0
2018-Jun-15 04:58N 47°21' W 003°07'0 0.0
2018-Jun-15 04:28N 47°21' W 003°07'0 0.0
2018-Jun-15 03:58N 47°21' W 003°07'0 0.0
2018-Jun-15 03:28N 47°21' W 003°07'0 0.0
2018-Jun-15 02:58N 47°21' W 003°07'0 0.0
2018-Jun-15 02:28N 47°21' W 003°07'0 0.0
2018-Jun-15 01:59N 47°21' W 003°07'0 0.0
2018-Jun-15 01:29N 47°21' W 003°07'0 0.0
2018-Jun-15 00:58N 47°21' W 003°07'0 0.0
2018-Jun-15 00:28N 47°21' W 003°07'0 0.0
2018-Jun-14 23:58N 47°21' W 003°07'0 0.0
2018-Jun-14 23:28N 47°21' W 003°07'0 0.0
2018-Jun-14 22:58N 47°21' W 003°07'0 0.0
2018-Jun-14 22:28N 47°21' W 003°07'0 0.0
2018-Jun-14 21:58N 47°21' W 003°07'0 0.0
2018-Jun-14 21:19N 47°21' W 003°07'0 0.0
2018-Jun-14 20:55N 47°21' W 003°07'0 0.0
2018-Jun-14 20:28N 47°21' W 003°07'0 0.0
2018-Jun-14 19:58N 47°21' W 003°07'0 0.0
2018-Jun-14 19:28N 47°21' W 003°07'0 0.0
2018-Jun-14 18:58N 47°21' W 003°07'0 0.0
2018-Jun-14 18:28N 47°21' W 003°07'0 0.0
2018-Jun-14 18:00N 47°21' W 003°07'0 0.0
2018-Jun-14 17:30N 47°21' W 003°07'0 0.0
2018-Jun-14 17:00N 47°21' W 003°07'0 0.7
2018-Jun-14 16:30N 47°21' W 003°07'2 4.2
2018-Jun-14 16:00N 47°20' W 003°04'510.5
2018-Jun-14 15:30N 47°18' W 002°57'5 9.0
2018-Jun-14 15:00N 47°15' W 002°51'1 1.6
2018-Jun-14 14:30N 47°15' W 002°52'1 1.4
2018-Jun-14 13:59N 47°15' W 002°53'3 5.8
2018-Jun-14 13:29N 47°16' W 002°57'2 5.1
2018-Jun-14 13:00N 47°17' W 003°01'1 2.5
2018-Jun-14 12:31N 47°18' W 002°60'4 8.4
2018-Jun-14 12:00N 47°19' W 002°54'2 3.5
2018-Jun-14 11:31N 47°20' W 002°56'  
Track history (hours):
 
Tides and Currents Weather Stations Pressure Air Temp Water Temp Dewpoint Dewpoint Depression Visibility Wind Speed Wind Dir Waves Ship Positions

Vn Sapeur

Last reported at 2018-Jun-24 11:00 UTC. Time now 2018-Jun-24 11:12 UTC.
Position N 48°22' W 004°31'.

Length 75 m; draft 5.7 m.

Type: SAR. MMSI: 228064900.

Date/timePositionNaut miles runAvg speedWind from/ knotsBaromVisibWave heightAir tempDewpointWater temp
2018-Jun-24 11:00N 48°22' W 004°31'0 0.0
2018-Jun-24 10:31N 48°22' W 004°31'0 0.0
2018-Jun-24 10:01N 48°22' W 004°31'0 0.0
2018-Jun-24 09:30N 48°22' W 004°31'0 0.0
2018-Jun-24 09:00N 48°22' W 004°31'0 0.0
2018-Jun-24 08:30N 48°22' W 004°31'0 0.0
2018-Jun-24 08:00N 48°22' W 004°31'0 0.0
2018-Jun-24 07:31N 48°22' W 004°31'0 0.0
2018-Jun-24 07:00N 48°22' W 004°31'0 0.0
2018-Jun-24 06:27N 48°22' W 004°31'0 0.0
2018-Jun-24 06:00N 48°22' W 004°31'1 1.9
2018-Jun-24 05:30N 48°22' W 004°30'5 9.7
2018-Jun-24 05:01N 48°19' W 004°36'4 8.1
2018-Jun-24 04:30N 48°18' W 004°42'4 7.9
2018-Jun-24 04:00N 48°14' W 004°45'4 8.8
2018-Jun-24 03:30N 48°10' W 004°45'4 8.3
2018-Jun-24 03:00N 48°06' W 004°45'3 6.9
2018-Jun-24 02:30N 48°02' W 004°46'3 6.3
2018-Jun-24 02:00N 47°60' W 004°44'3 6.3
2018-Jun-24 01:30N 47°58' W 004°40'3 6.3
2018-Jun-24 01:00N 47°55' W 004°37'3 6.8
2018-Jun-24 00:30N 47°53' W 004°34'3 7.0
2018-Jun-24 00:00N 47°50' W 004°30'4 7.0
2018-Jun-23 23:26N 47°47' W 004°26'11 7.6
2018-Jun-23 21:58N 47°40' W 004°13'23 7.8
2018-Jun-23 18:58N 47°28' W 003°44'3 7.6
2018-Jun-23 18:30N 47°26' W 003°39'4 7.5
2018-Jun-23 18:00N 47°24' W 003°35'4 7.2
2018-Jun-23 17:30N 47°22' W 003°30'4 7.5
2018-Jun-23 17:00N 47°21' W 003°25'4 7.9
2018-Jun-23 16:30N 47°19' W 003°20'4 8.5
2018-Jun-23 16:00N 47°17' W 003°14'5 8.9
2018-Jun-23 15:29N 47°16' W 003°08'4 8.6
2018-Jun-23 15:00N 47°14' W 003°02'4 7.9
2018-Jun-23 14:30N 47°13' W 002°56'4 8.2
2018-Jun-23 13:59N 47°13' W 002°50'9 7.3
2018-Jun-23 12:45N 47°14' W 002°37'2 7.5
2018-Jun-23 12:30N 47°14' W 002°34'4 7.8
2018-Jun-23 11:55N 47°15' W 002°28'3 5.9
2018-Jun-23 11:29N 47°15' W 002°24'0 0.0
2018-Jun-23 11:00N 47°15' W 002°24'0 0.0
2018-Jun-23 09:04N 47°15' W 002°24'0 1.5
2018-Jun-23 08:58N 47°15' W 002°24'3 5.9
2018-Jun-23 08:30N 47°14' W 002°28'510.4
2018-Jun-23 07:59N 47°14' W 002°36'611.3
2018-Jun-23 07:30N 47°15' W 002°44'511.0
2018-Jun-23 07:00N 47°17' W 002°52'510.8
2018-Jun-23 06:30N 47°19' W 002°59'510.4
2018-Jun-23 06:00N 47°21' W 003°06'1 1.8
2018-Jun-23 05:29N 47°21' W 003°08'0 0.0
2018-Jun-23 04:59N 47°21' W 003°08'0 0.0
2018-Jun-23 04:29N 47°21' W 003°08'0 0.0
2018-Jun-23 03:59N 47°21' W 003°08'0 0.0
2018-Jun-23 03:29N 47°21' W 003°08'0 0.0
2018-Jun-23 02:59N 47°21' W 003°08'0 0.0
2018-Jun-23 02:29N 47°21' W 003°08'0 0.1
2018-Jun-23 01:59N 47°21' W 003°08'0 0.0
2018-Jun-23 01:29N 47°21' W 003°07'0 0.0
2018-Jun-23 00:59N 47°21' W 003°08'0 0.0
2018-Jun-23 00:29N 47°21' W 003°08'0 0.0
2018-Jun-22 23:59N 47°21' W 003°08'0 0.0
2018-Jun-22 23:29N 47°21' W 003°07'0 0.1
2018-Jun-22 22:59N 47°21' W 003°07'0 0.0
2018-Jun-22 22:29N 47°21' W 003°07'0 0.0
2018-Jun-22 21:59N 47°21' W 003°08'0 0.0
2018-Jun-22 21:29N 47°21' W 003°08'0 0.0
2018-Jun-22 20:59N 47°21' W 003°08'0 0.0
2018-Jun-22 20:29N 47°21' W 003°07'0 0.0
2018-Jun-22 19:59N 47°21' W 003°07'0 0.0
2018-Jun-22 19:29N 47°21' W 003°07'0 0.0
2018-Jun-22 18:59N 47°21' W 003°07'0 0.0
2018-Jun-22 18:29N 47°21' W 003°07'0 0.0
2018-Jun-22 17:59N 47°21' W 003°08'0 0.0
2018-Jun-22 17:29N 47°21' W 003°08'0 0.0
2018-Jun-22 16:59N 47°21' W 003°08'0 0.0
2018-Jun-22 16:29N 47°21' W 003°08'0 0.0
2018-Jun-22 15:59N 47°21' W 003°08'0 0.0
2018-Jun-22 15:26N 47°21' W 003°08'0 0.0
2018-Jun-22 14:59N 47°21' W 003°08'0 0.0
2018-Jun-22 14:29N 47°21' W 003°08'0 0.0
2018-Jun-22 13:59N 47°21' W 003°08'0 0.0
2018-Jun-22 13:29N 47°21' W 003°08'0 0.0
2018-Jun-22 12:59N 47°21' W 003°08'0 0.0
2018-Jun-22 12:29N 47°21' W 003°08'0 0.0
2018-Jun-22 11:59N 47°21' W 003°08'0 0.0
2018-Jun-22 11:26N 47°21' W 003°08'0 0.0
2018-Jun-22 10:59N 47°21' W 003°08'0 0.0
2018-Jun-22 10:29N 47°21' W 003°08'0 0.0
2018-Jun-22 09:59N 47°21' W 003°08'0 0.0
2018-Jun-22 09:29N 47°21' W 003°08'0 0.0
2018-Jun-22 08:59N 47°21' W 003°08'0 0.0
2018-Jun-22 08:29N 47°21' W 003°08'0 0.1
2018-Jun-22 07:59N 47°21' W 003°08'0 0.0
2018-Jun-22 07:29N 47°21' W 003°08'0 0.0
2018-Jun-22 06:59N 47°21' W 003°08'0 0.0
2018-Jun-22 06:29N 47°21' W 003°08'0 0.0
2018-Jun-22 05:59N 47°21' W 003°08'0 0.0
2018-Jun-22 05:29N 47°21' W 003°08'0 0.0
2018-Jun-22 04:59N 47°21' W 003°08'0 0.0
2018-Jun-22 04:29N 47°21' W 003°08'0 0.0
2018-Jun-22 03:59N 47°21' W 003°08'0 0.0
2018-Jun-22 03:29N 47°21' W 003°08'0 0.0
2018-Jun-22 02:59N 47°21' W 003°08'0 0.0
2018-Jun-22 02:29N 47°21' W 003°08'0 0.0
2018-Jun-22 01:59N 47°21' W 003°07'0 0.0
2018-Jun-22 01:29N 47°21' W 003°07'0 0.0
2018-Jun-22 00:59N 47°21' W 003°07'0 0.0
2018-Jun-22 00:29N 47°21' W 003°08'0 0.0
2018-Jun-21 23:59N 47°21' W 003°08'0 0.1
2018-Jun-21 23:29N 47°21' W 003°07'0 0.1
2018-Jun-21 22:59N 47°21' W 003°08'0 0.1
2018-Jun-21 22:29N 47°21' W 003°07'0 0.1
2018-Jun-21 21:59N 47°21' W 003°07'0 0.0
2018-Jun-21 21:29N 47°21' W 003°07'0 0.0
2018-Jun-21 20:59N 47°21' W 003°07'0 0.0
2018-Jun-21 20:29N 47°21' W 003°07'0 0.0
2018-Jun-21 19:59N 47°21' W 003°07'0 0.1
2018-Jun-21 19:29N 47°21' W 003°07'0 0.1
2018-Jun-21 18:59N 47°21' W 003°07'0 0.0
2018-Jun-21 18:29N 47°21' W 003°07'0 0.0
2018-Jun-21 17:59N 47°21' W 003°07'0 0.0
2018-Jun-21 17:29N 47°21' W 003°07'0 0.0
2018-Jun-21 16:59N 47°21' W 003°07'0 0.0
2018-Jun-21 16:29N 47°21' W 003°07'2 3.3
2018-Jun-21 16:01N 47°23' W 003°08'510.2
2018-Jun-21 15:31N 47°28' W 003°08'0 0.8
2018-Jun-21 15:00N 47°27' W 003°08'3 6.9
2018-Jun-21 14:30N 47°24' W 003°06'511.1
2018-Jun-21 14:01N 47°19' W 003°03'510.9
2018-Jun-21 13:30N 47°14' W 002°59'3 5.6
2018-Jun-21 13:01N 47°12' W 003°00'4 7.0
2018-Jun-21 12:29N 47°08' W 003°02'2 3.2
2018-Jun-21 12:00N 47°07' W 003°03'4 7.0
2018-Jun-21 11:23N 47°11' W 003°01'0 0.2
2018-Jun-21 10:58N 47°11' W 003°01'2 3.9
2018-Jun-21 10:30N 47°12' W 003°03'0 0.4
2018-Jun-21 10:00N 47°12' W 003°03'1 0.9
2018-Jun-21 09:24N 47°12' W 003°03'1 1.8
2018-Jun-21 09:00N 47°12' W 003°03'0 1.0
2018-Jun-21 08:31N 47°12' W 003°03'4 7.5
2018-Jun-21 08:00N 47°10' W 002°58'612.2
2018-Jun-21 07:30N 47°06' W 002°51'3 4.8
2018-Jun-21 06:57N 47°08' W 002°49'4 7.9
2018-Jun-21 06:28N 47°12' W 002°52'2 4.2
2018-Jun-21 05:59N 47°12' W 002°54'3 6.3
2018-Jun-21 05:30N 47°13' W 002°59'4 8.5
2018-Jun-21 05:00N 47°13' W 003°05'4 8.6
2018-Jun-21 04:31N 47°14' W 003°11'4 8.1
2018-Jun-21 04:00N 47°16' W 003°17'4 8.3
2018-Jun-21 03:30N 47°18' W 003°22'4 8.1
2018-Jun-21 03:00N 47°20' W 003°27'4 7.8
2018-Jun-21 02:31N 47°22' W 003°31'4 7.9
2018-Jun-21 02:00N 47°25' W 003°36'4 7.7
2018-Jun-21 01:30N 47°27' W 003°41'4 7.6
2018-Jun-21 01:00N 47°29' W 003°46'4 7.3
2018-Jun-21 00:31N 47°31' W 003°50'4 8.0
2018-Jun-21 00:00N 47°33' W 003°55'4 8.2
2018-Jun-20 23:30N 47°35' W 004°01'4 8.2
2018-Jun-20 22:59N 47°37' W 004°06'4 8.4
2018-Jun-20 22:29N 47°40' W 004°11'28 8.4
2018-Jun-20 19:11N 47°58' W 004°41'2 9.0
2018-Jun-20 19:00N 47°60' W 004°43'4 8.8
2018-Jun-20 18:31N 48°03' W 004°47'510.2
2018-Jun-20 18:00N 48°08' W 004°46'611.5
2018-Jun-20 17:30N 48°14' W 004°45'510.5
2018-Jun-20 17:00N 48°18' W 004°41'510.8
2018-Jun-20 16:31N 48°21' W 004°33'2 4.5
2018-Jun-20 15:58N 48°22' W 004°31'0 0.0
2018-Jun-20 15:29N 48°22' W 004°31'0 0.0
2018-Jun-20 14:58N 48°22' W 004°31'0 0.0
2018-Jun-20 14:28N 48°22' W 004°31'0 0.0
2018-Jun-20 13:58N 48°22' W 004°31'0 0.1
2018-Jun-20 13:30N 48°22' W 004°31'1 2.1
2018-Jun-20 13:01N 48°22' W 004°29'4 8.6
2018-Jun-20 12:30N 48°20' W 004°35'4 7.4
2018-Jun-20 11:59N 48°21' W 004°41'0 0.0
2018-Jun-20 11:29N 48°21' W 004°41'0 0.0
2018-Jun-20 10:59N 48°21' W 004°41'0 0.0
2018-Jun-20 10:29N 48°21' W 004°41'0 0.2
2018-Jun-20 10:00N 48°21' W 004°41'611.5
2018-Jun-20 09:30N 48°15' W 004°45'611.5
2018-Jun-20 09:00N 48°10' W 004°41'611.5
2018-Jun-20 08:30N 48°08' W 004°34'4 7.6
2018-Jun-20 08:00N 48°07' W 004°28'3 6.0
2018-Jun-20 07:30N 48°07' W 004°23'3 5.1
2018-Jun-20 07:00N 48°06' W 004°20'0 0.1
2018-Jun-20 06:29N 48°06' W 004°20'0 0.0
2018-Jun-20 05:59N 48°06' W 004°20'0 0.0
2018-Jun-20 05:29N 48°06' W 004°20'0 0.0
2018-Jun-20 04:59N 48°06' W 004°20'0 0.0
2018-Jun-20 04:29N 48°06' W 004°20'0 0.0
2018-Jun-20 03:53N 48°06' W 004°20'0 0.0
2018-Jun-20 03:29N 48°06' W 004°20'0 0.0
2018-Jun-20 02:53N 48°06' W 004°20'0 0.0
2018-Jun-20 02:23N 48°06' W 004°20'0 0.0
2018-Jun-20 01:59N 48°06' W 004°20'0 0.0
2018-Jun-20 01:23N 48°06' W 004°20'0 0.0
2018-Jun-20 00:59N 48°06' W 004°20'0 0.0
2018-Jun-20 00:29N 48°06' W 004°20'0 0.0
2018-Jun-19 23:59N 48°06' W 004°20'0 0.0
2018-Jun-19 23:29N 48°06' W 004°20'0 0.0
2018-Jun-19 22:59N 48°06' W 004°20'0 0.0
2018-Jun-19 22:29N 48°06' W 004°20'0 0.0
2018-Jun-19 21:59N 48°06' W 004°20'0 0.0
2018-Jun-19 21:29N 48°06' W 004°20'0 0.0
2018-Jun-19 20:59N 48°06' W 004°20'0 0.0
2018-Jun-19 20:29N 48°06' W 004°20'0 0.0
2018-Jun-19 19:59N 48°06' W 004°20'0 0.0
2018-Jun-19 19:29N 48°06' W 004°20'0 0.0
2018-Jun-19 18:59N 48°06' W 004°20'0 0.0
2018-Jun-19 18:29N 48°06' W 004°20'0 0.0
2018-Jun-19 17:59N 48°06' W 004°20'0 0.0
2018-Jun-19 17:29N 48°06' W 004°20'0 0.0
2018-Jun-19 16:59N 48°06' W 004°20'0 0.0
2018-Jun-19 16:26N 48°06' W 004°20'0 0.0
2018-Jun-19 15:56N 48°06' W 004°20'0 0.0
2018-Jun-19 15:29N 48°06' W 004°20'0 0.0
2018-Jun-19 14:59N 48°06' W 004°20'0 0.0
2018-Jun-19 14:29N 48°06' W 004°20'0 0.0
2018-Jun-19 13:59N 48°06' W 004°20'0 0.0
2018-Jun-19 13:29N 48°06' W 004°20'0 0.0
2018-Jun-19 12:59N 48°06' W 004°20'0 0.0
2018-Jun-19 12:29N 48°06' W 004°20'0 0.0
2018-Jun-19 11:59N 48°06' W 004°20'0 0.0
2018-Jun-19 11:29N 48°06' W 004°20'0 0.0
2018-Jun-19 10:59N 48°06' W 004°20'0 0.0
2018-Jun-19 10:20N 48°06' W 004°20'0 0.0
2018-Jun-19 09:59N 48°06' W 004°20'0 0.0
2018-Jun-19 09:23N 48°06' W 004°20'0 0.0
2018-Jun-19 08:56N 48°06' W 004°20'0 0.0
2018-Jun-19 08:29N 48°06' W 004°20'0 0.0
2018-Jun-19 07:59N 48°06' W 004°20'0 0.0
2018-Jun-19 07:29N 48°06' W 004°20'0 0.0
2018-Jun-19 06:56N 48°06' W 004°20'0 0.0
2018-Jun-19 06:29N 48°06' W 004°20'0 0.0
2018-Jun-19 05:59N 48°06' W 004°20'0 0.0
2018-Jun-19 05:29N 48°06' W 004°20'0 0.0
2018-Jun-19 04:59N 48°06' W 004°20'0 0.0
2018-Jun-19 04:29N 48°06' W 004°20'0 0.0
2018-Jun-19 03:59N 48°06' W 004°20'0 0.0
2018-Jun-19 03:29N 48°06' W 004°20'0 0.0
2018-Jun-19 02:59N 48°06' W 004°20'0 0.0
2018-Jun-19 02:29N 48°06' W 004°20'0 0.0
2018-Jun-19 01:59N 48°06' W 004°20'0 0.0
2018-Jun-19 01:29N 48°06' W 004°20'0 0.0
2018-Jun-19 00:59N 48°06' W 004°20'0 0.0
2018-Jun-19 00:29N 48°06' W 004°20'0 0.0
2018-Jun-18 23:59N 48°06' W 004°20'0 0.0
2018-Jun-18 23:26N 48°06' W 004°20'0 0.0
2018-Jun-18 22:59N 48°06' W 004°20'0 0.0
2018-Jun-18 22:29N 48°06' W 004°20'0 0.0
2018-Jun-18 21:59N 48°06' W 004°20'0 0.0
2018-Jun-18 21:29N 48°06' W 004°20'0 0.0
2018-Jun-18 20:59N 48°06' W 004°20'0 0.0
2018-Jun-18 20:29N 48°06' W 004°20'0 0.0
2018-Jun-18 19:59N 48°06' W 004°20'0 0.0
2018-Jun-18 19:29N 48°06' W 004°20'0 0.0
2018-Jun-18 18:59N 48°06' W 004°20'0 0.0
2018-Jun-18 18:29N 48°06' W 004°20'0 0.0
2018-Jun-18 17:59N 48°06' W 004°20'0 0.0
2018-Jun-18 17:29N 48°06' W 004°20'0 0.0
2018-Jun-18 16:59N 48°06' W 004°20'0 0.0
2018-Jun-18 16:29N 48°06' W 004°20'0 0.0
2018-Jun-18 15:59N 48°06' W 004°20'0 0.0
2018-Jun-18 15:29N 48°06' W 004°20'0 0.0
2018-Jun-18 14:59N 48°06' W 004°20'0 0.0
2018-Jun-18 14:29N 48°06' W 004°20'0 0.0
2018-Jun-18 13:59N 48°06' W 004°20'0 0.0
2018-Jun-18 13:29N 48°06' W 004°20'0 0.0
2018-Jun-18 12:59N 48°06' W 004°20'0 0.0
2018-Jun-18 12:29N 48°06' W 004°20'0 0.0
2018-Jun-18 11:59N 48°06' W 004°20'0 0.0
2018-Jun-18 11:29N 48°06' W 004°20'0 0.0
2018-Jun-18 10:59N 48°06' W 004°20'0 0.0
2018-Jun-18 10:29N 48°06' W 004°20'0 0.0
2018-Jun-18 09:59N 48°06' W 004°20'2 3.8
2018-Jun-18 09:30N 48°07' W 004°22'612.9
2018-Jun-18 09:01N 48°09' W 004°31'612.5
2018-Jun-18 08:31N 48°12' W 004°40'510.5
2018-Jun-18 08:00N 48°17' W 004°38'612.4
2018-Jun-18 07:30N 48°21' W 004°31'1 2.2
2018-Jun-18 06:58N 48°22' W 004°31'0 0.0
2018-Jun-18 06:28N 48°22' W 004°31'0 0.0
2018-Jun-18 05:58N 48°22' W 004°31'0 0.0
2018-Jun-18 05:28N 48°22' W 004°31'0 0.0
2018-Jun-18 04:58N 48°22' W 004°31'0 0.0
2018-Jun-18 04:28N 48°22' W 004°31'0 0.0
2018-Jun-18 03:58N 48°22' W 004°31'0 0.0
2018-Jun-18 03:28N 48°22' W 004°31'0 0.0
2018-Jun-18 02:58N 48°22' W 004°31'0 0.0
2018-Jun-18 02:28N 48°22' W 004°31'0 0.0
2018-Jun-18 01:58N 48°22' W 004°31'0 0.0
2018-Jun-18 01:28N 48°22' W 004°31'0 0.0
2018-Jun-18 00:58N 48°22' W 004°31'0 0.0
2018-Jun-18 00:28N 48°22' W 004°31'0 0.0
2018-Jun-17 23:58N 48°22' W 004°31'0 0.0
2018-Jun-17 23:28N 48°22' W 004°31'0 0.0
2018-Jun-17 22:58N 48°22' W 004°31'0 0.0
2018-Jun-17 22:28N 48°22' W 004°31'0 0.0
2018-Jun-17 21:58N 48°22' W 004°31'0 0.0
2018-Jun-17 21:28N 48°22' W 004°31'0 0.0
2018-Jun-17 20:58N 48°22' W 004°31'0 0.0
2018-Jun-17 20:28N 48°22' W 004°31'0 0.0
2018-Jun-17 19:58N 48°22' W 004°31'0 0.0
2018-Jun-17 19:28N 48°22' W 004°31'0 0.0
2018-Jun-17 18:58N 48°22' W 004°31'0 0.0
2018-Jun-17 18:28N 48°22' W 004°31'0 0.0
2018-Jun-17 17:58N 48°22' W 004°31'0 0.0
2018-Jun-17 17:28N 48°22' W 004°31'0 0.0
2018-Jun-17 16:58N 48°22' W 004°31'0 0.0
2018-Jun-17 16:28N 48°22' W 004°31'0 0.0
2018-Jun-17 15:58N 48°22' W 004°31'0 0.0
2018-Jun-17 15:28N 48°22' W 004°31'0 0.0
2018-Jun-17 14:58N 48°22' W 004°31'0 0.0
2018-Jun-17 14:28N 48°22' W 004°31'0 0.0
2018-Jun-17 13:58N 48°22' W 004°31'0 0.0
2018-Jun-17 13:28N 48°22' W 004°31'0 0.0
2018-Jun-17 12:58N 48°22' W 004°31'0 0.0
2018-Jun-17 12:28N 48°22' W 004°31'0 0.0
2018-Jun-17 11:58N 48°22' W 004°31'0 0.0
2018-Jun-17 11:28N 48°22' W 004°31'0 0.0
2018-Jun-17 10:58N 48°22' W 004°31'0 0.0
2018-Jun-17 10:28N 48°22' W 004°31'0 0.0
2018-Jun-17 09:58N 48°22' W 004°31'0 0.0
2018-Jun-17 09:28N 48°22' W 004°31'0 0.0
2018-Jun-17 08:58N 48°22' W 004°31'0 0.0
2018-Jun-17 08:28N 48°22' W 004°31'0 0.0
2018-Jun-17 07:58N 48°22' W 004°31'0 0.0
2018-Jun-17 07:28N 48°22' W 004°31'0 0.0
2018-Jun-17 06:58N 48°22' W 004°31'0 0.0
2018-Jun-17 06:28N 48°22' W 004°31'0 0.0
2018-Jun-17 05:58N 48°22' W 004°31'0 0.0
2018-Jun-17 05:28N 48°22' W 004°31'0 0.0
2018-Jun-17 04:58N 48°22' W 004°31'0 0.0
2018-Jun-17 04:28N 48°22' W 004°31'0 0.0
2018-Jun-17 03:58N 48°22' W 004°31'0 0.0
2018-Jun-17 03:28N 48°22' W 004°31'0 0.0
2018-Jun-17 02:58N 48°22' W 004°31'0 0.0
2018-Jun-17 02:28N 48°22' W 004°31'0 0.0
2018-Jun-17 01:58N 48°22' W 004°31'0 0.0
2018-Jun-17 01:28N 48°22' W 004°31'0 0.0
2018-Jun-17 00:58N 48°22' W 004°31'0 0.0
2018-Jun-17 00:28N 48°22' W 004°31'0 0.0
2018-Jun-16 23:58N 48°22' W 004°31'0 0.0
2018-Jun-16 23:28N 48°22' W 004°31'0 0.0
2018-Jun-16 22:58N 48°22' W 004°31'0 0.0
2018-Jun-16 22:28N 48°22' W 004°31'0 0.1
2018-Jun-16 21:58N 48°22' W 004°31'0 0.1
2018-Jun-16 21:28N 48°22' W 004°31'0 0.0
2018-Jun-16 20:58N 48°22' W 004°31'0 0.0
2018-Jun-16 20:28N 48°22' W 004°31'0 0.0
2018-Jun-16 19:58N 48°22' W 004°31'0 0.0
2018-Jun-16 19:28N 48°22' W 004°31'0 0.0
2018-Jun-16 18:58N 48°22' W 004°31'0 0.0
2018-Jun-16 18:28N 48°22' W 004°31'0 0.0
2018-Jun-16 17:58N 48°22' W 004°31'0 0.0
2018-Jun-16 17:28N 48°22' W 004°31'0 0.0
2018-Jun-16 16:58N 48°22' W 004°31'0 0.0
2018-Jun-16 16:28N 48°22' W 004°31'0 0.0
2018-Jun-16 15:58N 48°22' W 004°31'0 0.0
2018-Jun-16 15:28N 48°22' W 004°31'0 0.0
2018-Jun-16 14:58N 48°22' W 004°31'0 0.0
2018-Jun-16 14:28N 48°22' W 004°31'0 0.0
2018-Jun-16 13:58N 48°22' W 004°31'0 0.0
2018-Jun-16 13:28N 48°22' W 004°31'0 0.0
2018-Jun-16 12:58N 48°22' W 004°31'0 0.0
2018-Jun-16 12:28N 48°22' W 004°31'0 0.0
2018-Jun-16 11:58N 48°22' W 004°31'0 0.0
2018-Jun-16 11:28N 48°22' W 004°31'0 0.0
2018-Jun-16 10:58N 48°22' W 004°31'0 0.0
2018-Jun-16 10:28N 48°22' W 004°31'0 0.0
2018-Jun-16 09:58N 48°22' W 004°31'0 0.0
2018-Jun-16 09:28N 48°22' W 004°31'0 0.0
2018-Jun-16 08:58N 48°22' W 004°31'0 0.0
2018-Jun-16 08:28N 48°22' W 004°31'0 0.0
2018-Jun-16 07:58N 48°22' W 004°31'0 0.0
2018-Jun-16 07:28N 48°22' W 004°31'0 0.0
2018-Jun-16 06:58N 48°22' W 004°31'0 0.0
2018-Jun-16 06:28N 48°22' W 004°31'0 0.0
2018-Jun-16 05:58N 48°22' W 004°31'1 1.8
2018-Jun-16 05:30N 48°22' W 004°30'5 9.9
2018-Jun-16 05:00N 48°19' W 004°36'3 6.5
2018-Jun-16 04:30N 48°18' W 004°40'4 7.8
2018-Jun-16 04:01N 48°16' W 004°45'4 7.8
2018-Jun-16 03:30N 48°12' W 004°46'4 7.4
2018-Jun-16 03:00N 48°09' W 004°45'4 7.9
2018-Jun-16 02:30N 48°05' W 004°45'4 7.7
2018-Jun-16 02:00N 48°01' W 004°45'2 3.9
2018-Jun-16 01:30N 47°59' W 004°44'2 3.5
2018-Jun-16 01:00N 47°57' W 004°44'14 3.7
2018-Jun-15 21:10N 47°45' W 004°33'3 6.6
2018-Jun-15 20:43N 47°44' W 004°29'3 6.3
2018-Jun-15 20:12N 47°43' W 004°24'33 5.9
2018-Jun-15 14:35N 47°30' W 003°39'1 6.1
2018-Jun-15 14:29N 47°29' W 003°38'3 6.2
2018-Jun-15 13:57N 47°28' W 003°34'3 6.3
2018-Jun-15 13:30N 47°27' W 003°30'3 6.2
2018-Jun-15 13:00N 47°27' W 003°25'4 8.9
2018-Jun-15 12:30N 47°26' W 003°19'4 7.2
2018-Jun-15 12:00N 47°25' W 003°14'3 5.7
2018-Jun-15 11:30N 47°27' W 003°10'2 4.9
2018-Jun-15 11:00N 47°27' W 003°13'2 4.1
2018-Jun-15 10:31N 47°27' W 003°10'4 7.7
2018-Jun-15 10:00N 47°23' W 003°09'510.7
2018-Jun-15 09:30N 47°19' W 003°03'4 8.8
2018-Jun-15 09:00N 47°15' W 003°06'2 4.1
2018-Jun-15 08:30N 47°15' W 003°09'1 2.5
2018-Jun-15 08:00N 47°15' W 003°11'610.8
2018-Jun-15 07:25N 47°18' W 003°02'410.3
2018-Jun-15 07:00N 47°21' W 003°07'0 0.4
2018-Jun-15 06:28N 47°21' W 003°07'0 0.0
2018-Jun-15 05:59N 47°21' W 003°07'0 0.0
2018-Jun-15 05:28N 47°21' W 003°07'0 0.0
2018-Jun-15 04:58N 47°21' W 003°07'0 0.0
2018-Jun-15 04:28N 47°21' W 003°07'0 0.0
2018-Jun-15 03:58N 47°21' W 003°07'0 0.0
2018-Jun-15 03:28N 47°21' W 003°07'0 0.0
2018-Jun-15 02:58N 47°21' W 003°07'0 0.0
2018-Jun-15 02:28N 47°21' W 003°07'0 0.0
2018-Jun-15 01:59N 47°21' W 003°07'0 0.0
2018-Jun-15 01:29N 47°21' W 003°07'0 0.0
2018-Jun-15 00:58N 47°21' W 003°07'0 0.0
2018-Jun-15 00:28N 47°21' W 003°07'0 0.0
2018-Jun-14 23:58N 47°21' W 003°07'0 0.0
2018-Jun-14 23:28N 47°21' W 003°07'0 0.0
2018-Jun-14 22:58N 47°21' W 003°07'0 0.0
2018-Jun-14 22:28N 47°21' W 003°07'0 0.0
2018-Jun-14 21:58N 47°21' W 003°07'0 0.0
2018-Jun-14 21:19N 47°21' W 003°07'0 0.0
2018-Jun-14 20:55N 47°21' W 003°07'0 0.0
2018-Jun-14 20:28N 47°21' W 003°07'0 0.0
2018-Jun-14 19:58N 47°21' W 003°07'0 0.0
2018-Jun-14 19:28N 47°21' W 003°07'0 0.0
2018-Jun-14 18:58N 47°21' W 003°07'0 0.0
2018-Jun-14 18:28N 47°21' W 003°07'0 0.0
2018-Jun-14 18:00N 47°21' W 003°07'0 0.0
2018-Jun-14 17:30N 47°21' W 003°07'0 0.0
2018-Jun-14 17:00N 47°21' W 003°07'0 0.7
2018-Jun-14 16:30N 47°21' W 003°07'2 4.2
2018-Jun-14 16:00N 47°20' W 003°04'510.5
2018-Jun-14 15:30N 47°18' W 002°57'5 9.0
2018-Jun-14 15:00N 47°15' W 002°51'1 1.6
2018-Jun-14 14:30N 47°15' W 002°52'1 1.4
2018-Jun-14 13:59N 47°15' W 002°53'3 5.8
2018-Jun-14 13:29N 47°16' W 002°57'2 5.1
2018-Jun-14 13:00N 47°17' W 003°01'1 2.5
2018-Jun-14 12:31N 47°18' W 002°60'4 8.4
2018-Jun-14 12:00N 47°19' W 002°54'2 3.5
2018-Jun-14 11:31N 47°20' W 002°56'  

Dump ship's entire track history